Time;durP1;ratioP1;P1;durP2;ratioP2;P2;SDS_P1;SDS_P2;PMS_P1;PMS_P2;Temp;Humidity;BMP_temperature;BMP_pressure;BME280_temperature;BME280_humidity;BME280_pressure;Samples;Min_cycle;Max_cycle;Signal;HPM_P1;HPM_P2
2022/09/27 00:01:07;;;;;;;2.05;0.82;;;20.50;62.60;;;;;;5023708;28;43946;-59
2022/09/27 00:03:35;;;;;;;1.20;0.50;;;20.50;62.60;;;;;;5007405;28;43627;-58
2022/09/27 00:06:07;;;;;;;0.68;0.50;;;20.50;62.60;;;;;;5025072;28;43786;-59
2022/09/27 00:08:36;;;;;;;1.67;1.00;;;20.50;62.60;;;;;;5024545;28;43948;-58
2022/09/27 00:11:06;;;;;;;1.40;0.60;;;20.50;62.60;;;;;;5024300;28;43823;-58
2022/09/27 00:13:34;;;;;;;0.98;0.50;;;20.50;62.60;;;;;;5022902;28;43809;-58
2022/09/27 00:16:05;;;;;;;1.08;0.40;;;20.50;62.60;;;;;;5023633;28;43422;-58
2022/09/27 00:18:33;;;;;;;0.65;0.40;;;20.40;62.60;;;;;;5023565;28;43526;-58
2022/09/27 00:21:07;;;;;;;0.80;0.50;;;20.40;62.70;;;;;;5023046;28;43919;-59
2022/09/27 00:23:35;;;;;;;1.00;0.57;;;20.40;62.60;;;;;;5023813;28;43356;-58
2022/09/27 00:26:03;;;;;;;0.75;0.50;;;20.40;62.70;;;;;;5023316;28;43490;-58
2022/09/27 00:28:32;;;;;;;1.85;0.57;;;20.40;62.60;;;;;;5021507;28;43530;-59
2022/09/27 00:31:00;;;;;;;0.95;0.65;;;20.40;62.60;;;;;;5022453;28;44927;-58
2022/09/27 00:33:28;;;;;;;0.55;0.40;;;20.40;62.70;;;;;;5024158;28;43553;-58
2022/09/27 00:36:03;;;;;;;1.27;0.68;;;20.40;62.70;;;;;;5024375;28;43442;-58
2022/09/27 00:38:31;;;;;;;0.68;0.30;;;20.30;62.70;;;;;;5020308;28;43506;-58
2022/09/27 00:40:59;;;;;;;0.95;0.40;;;20.40;62.70;;;;;;5023482;28;44929;-58
2022/09/27 00:43:52;;;;;;;0.88;0.57;;;20.30;62.70;;;;;;5021440;28;43394;-58
2022/09/27 00:46:37;;;;;;;1.00;0.38;;;20.30;62.70;;;;;;5021885;28;43449;-58
2022/09/27 00:49:33;;;;;;;1.05;0.50;;;20.30;62.70;;;;;;5042917;28;43429;-58
2022/09/27 00:52:06;;;;;;;1.38;0.55;;;20.30;62.70;;;;;;5023504;28;44088;-59
2022/09/27 00:54:37;;;;;;;0.93;0.40;;;20.30;62.80;;;;;;5023695;28;43429;-59
2022/09/27 00:57:05;;;;;;;0.55;0.40;;;20.30;62.80;;;;;;5024302;28;43497;-58
2022/09/27 00:59:40;;;;;;;0.82;0.70;;;20.20;62.80;;;;;;5022929;28;43426;-59
2022/09/27 01:02:08;;;;;;;0.85;0.55;;;20.30;62.80;;;;;;5055250;28;44680;-58
2022/09/27 01:04:37;;;;;;;0.73;0.30;;;20.20;62.80;;;;;;5023544;28;43515;-58
2022/09/27 01:07:05;;;;;;;1.27;0.38;;;20.20;62.80;;;;;;5022339;28;43434;-59
2022/09/27 01:09:33;;;;;;;0.55;0.40;;;20.20;62.80;;;;;;5022185;28;43545;-59
2022/09/27 01:12:16;;;;;;;0.95;0.60;;;20.20;62.80;;;;;;5022526;28;44926;-58
2022/09/27 01:15:11;;;;;;;0.88;0.50;;;20.20;62.80;;;;;;5023176;28;43549;-58
2022/09/27 01:17:41;;;;;;;1.33;0.70;;;20.20;62.70;;;;;;5006214;28;43483;-59
2022/09/27 01:20:12;;;;;;;0.80;0.52;;;20.20;62.80;;;;;;5022307;28;43482;-58
2022/09/27 01:22:51;;;;;;;0.88;0.45;;;20.20;62.80;;;;;;5023274;28;44751;-58
2022/09/27 01:25:53;;;;;;;1.17;0.43;;;20.10;62.70;;;;;;5018545;28;43531;-59
2022/09/27 01:28:39;;;;;;;;;;;20.20;62.80;;;;;;5008415;28;43585;-59
2022/09/27 01:31:28;;;;;;;0.52;0.30;;;20.10;62.80;;;;;;5023874;28;43462;-58
2022/09/27 01:34:22;;;;;;;0.63;0.30;;;20.10;62.90;;;;;;5021407;28;44962;-59
2022/09/27 01:37:06;;;;;;;0.30;0.30;;;20.10;62.90;;;;;;5035420;28;43494;-58
2022/09/27 01:44:38;;;;;;;0.98;0.40;;;20.10;62.70;;;;;;5024471;28;43713;-58
2022/09/27 01:47:20;;;;;;;1.20;0.43;;;20.00;62.70;;;;;;5014919;28;44120;-58
2022/09/27 01:50:18;;;;;;;1.00;0.47;;;20.00;62.80;;;;;;5028730;28;44964;-58
2022/09/27 01:53:13;;;;;;;0.60;0.30;;;20.00;62.80;;;;;;5020456;28;43531;-59
2022/09/27 01:56:04;;;;;;;0.88;0.50;;;20.00;62.80;;;;;;5018072;28;43608;-58
2022/09/27 01:59:12;;;;;;;0.45;0.45;;;20.00;62.80;;;;;;5037989;28;44086;-58
2022/09/27 02:01:49;;;;;;;1.85;0.43;;;20.00;62.80;;;;;;5023852;28;43517;-58
2022/09/27 02:04:20;;;;;;;;;;;20.00;62.80;;;;;;4980987;28;43535;-59
2022/09/27 02:07:19;;;;;;;0.50;0.30;;;20.00;62.80;;;;;;4997282;28;43501;-58
2022/09/27 02:10:15;;;;;;;0.88;0.43;;;20.00;62.90;;;;;;4983161;28;44423;-58
2022/09/27 02:13:13;;;;;;;0.60;0.40;;;20.00;62.90;;;;;;4997412;28;44295;-58
2022/09/27 02:16:04;;;;;;;0.55;0.40;;;20.00;62.90;;;;;;4980979;28;43575;-58
2022/09/27 02:19:05;;;;;;;0.93;0.40;;;19.90;62.90;;;;;;4974989;28;43537;-58
2022/09/27 02:21:48;;;;;;;1.25;0.47;;;19.90;62.90;;;;;;4981587;28;44125;-58
2022/09/27 02:24:22;;;;;;;0.40;0.40;;;19.90;62.90;;;;;;4985377;28;43696;-58
2022/09/27 02:27:08;;;;;;;0.57;0.50;;;19.90;62.80;;;;;;4980545;28;43381;-58
2022/09/27 02:29:45;;;;;;;0.40;0.40;;;19.90;62.90;;;;;;4981778;28;43483;-58
2022/09/27 02:32:12;;;;;;;0.30;0.30;;;19.90;62.90;;;;;;4981431;28;44877;-58
2022/09/27 02:34:42;;;;;;;0.68;0.50;;;19.90;62.90;;;;;;4981656;28;43621;-58
2022/09/27 02:37:10;;;;;;;0.77;0.50;;;19.90;62.90;;;;;;4981576;28;43422;-58
2022/09/27 02:39:37;;;;;;;0.95;0.55;;;19.90;63.50;;;;;;4981737;28;43615;-58
2022/09/27 02:42:07;;;;;;;0.75;0.47;;;19.90;62.90;;;;;;4981573;28;44119;-58
2022/09/27 02:44:37;;;;;;;0.98;0.32;;;19.90;62.90;;;;;;4979797;28;43984;-58
2022/09/27 02:47:20;;;;;;;0.98;0.43;;;19.90;62.90;;;;;;4982518;28;43467;-58
2022/09/27 02:50:09;;;;;;;0.85;0.40;;;19.90;62.80;;;;;;4981980;28;44061;-59
2022/09/27 02:53:06;;;;;;;0.60;0.50;;;19.80;62.80;;;;;;4982232;28;44345;-58
2022/09/27 02:55:49;;;;;;;0.60;0.50;;;19.80;62.80;;;;;;4981169;28;43771;-58
2022/09/27 02:59:22;;;;;;;0.30;0.28;;;19.80;62.90;;;;;;4988407;28;43452;-58
2022/09/27 03:02:40;;;;;;;1.40;0.40;;;19.80;62.80;;;;;;4986273;28;43590;-59
2022/09/27 03:05:34;;;;;;;1.95;0.70;;;19.80;62.90;;;;;;5019530;28;44369;-59
2022/09/27 03:08:03;;;;;;;0.93;0.45;;;19.80;63.00;;;;;;5020811;28;44160;-59
2022/09/27 03:10:30;;;;;;;0.70;0.40;;;19.80;62.90;;;;;;5020698;28;43387;-58
2022/09/27 03:12:57;;;;;;;0.93;0.50;;;19.80;62.90;;;;;;5008375;28;43633;-59
2022/09/27 03:15:25;;;;;;;0.70;0.68;;;19.80;62.90;;;;;;5021493;28;43999;-58
2022/09/27 03:18:02;;;;;;;0.75;0.45;;;19.80;62.90;;;;;;5021698;28;43479;-59
2022/09/27 03:20:48;;;;;;;0.65;0.32;;;19.80;62.90;;;;;;5020514;28;43483;-58
2022/09/27 03:23:18;;;;;;;0.88;0.47;;;19.80;62.90;;;;;;5021733;28;43598;-58
2022/09/27 03:25:45;;;;;;;1.30;0.63;;;19.70;62.90;;;;;;5020238;28;44037;-58
2022/09/27 03:28:13;;;;;;;1.00;0.50;;;19.70;62.90;;;;;;5020526;28;43423;-58
2022/09/27 03:30:44;;;;;;;0.93;0.45;;;19.70;62.90;;;;;;5020547;28;43437;-58
2022/09/27 03:33:28;;;;;;;0.65;0.40;;;19.70;62.90;;;;;;5016967;28;43435;-59
2022/09/27 03:36:02;;;;;;;0.52;0.50;;;19.70;62.90;;;;;;5020848;28;44142;-58
2022/09/27 03:38:29;;;;;;;0.75;0.55;;;19.70;62.90;;;;;;5022825;28;44043;-59
2022/09/27 03:40:57;;;;;;;0.60;0.40;;;19.70;62.90;;;;;;5006463;28;43450;-58
2022/09/27 03:43:25;;;;;;;0.32;0.32;;;19.70;62.90;;;;;;5022857;28;43434;-58
2022/09/27 03:45:57;;;;;;;0.40;0.35;;;19.70;62.90;;;;;;5023733;28;44988;-58
2022/09/27 03:48:25;;;;;;;0.50;0.40;;;19.70;62.90;;;;;;5022269;28;43424;-58
2022/09/27 03:50:54;;;;;;;0.60;0.40;;;19.70;62.90;;;;;;5025455;28;43433;-58
2022/09/27 03:53:21;;;;;;;2.33;0.63;;;19.70;62.90;;;;;;5024637;28;44038;-58
2022/09/27 03:55:49;;;;;;;0.50;0.35;;;19.70;62.90;;;;;;5021050;28;44068;-58
2022/09/27 03:58:16;;;;;;;0.63;0.40;;;19.60;62.90;;;;;;5022948;28;43546;-59
2022/09/27 04:00:45;;;;;;;0.50;0.35;;;19.60;62.90;;;;;;5023008;28;43484;-58
2022/09/27 04:03:13;;;;;;;0.70;0.52;;;19.60;62.90;;;;;;5023753;28;43541;-58
2022/09/27 04:06:13;;;;;;;0.60;0.45;;;19.60;62.80;;;;;;5024485;28;44729;-58
2022/09/27 04:08:43;;;;;;;0.65;0.35;;;19.60;62.90;;;;;;5019382;28;43398;-58
2022/09/27 04:11:11;;;;;;;0.65;0.35;;;19.60;62.90;;;;;;5023077;28;43450;-58
2022/09/27 04:13:40;;;;;;;1.08;0.50;;;19.60;62.90;;;;;;5023028;28;43489;-58
2022/09/27 04:16:08;;;;;;;0.52;0.43;;;19.60;62.90;;;;;;5022286;28;44994;-58
2022/09/27 04:19:08;;;;;;;0.20;0.20;;;19.60;62.90;;;;;;5022600;28;43500;-58
2022/09/27 04:22:03;;;;;;;0.73;0.43;;;19.60;62.90;;;;;;5031039;28;43490;-58
2022/09/27 04:24:30;;;;;;;1.15;0.60;;;19.60;63.00;;;;;;5023280;28;43484;-58
2022/09/27 04:27:15;;;;;;;1.50;0.60;;;19.60;62.90;;;;;;5022738;28;43786;-58
2022/09/27 04:29:44;;;;;;;0.93;0.45;;;19.60;62.90;;;;;;5022088;28;43427;-59
2022/09/27 04:32:32;;;;;;;0.50;0.40;;;19.50;62.90;;;;;;5022807;28;43429;-58
2022/09/27 04:38:04;;;;;;;0.95;0.50;;;19.50;62.90;;;;;;5021985;28;43805;-58
2022/09/27 04:40:34;;;;;;;0.60;0.50;;;19.50;63.00;;;;;;5021844;28;43433;-59
2022/09/27 04:43:03;;;;;;;0.98;0.45;;;19.50;63.00;;;;;;5037452;28;43428;-58
2022/09/27 04:45:30;;;;;;;1.10;0.47;;;19.50;63.00;;;;;;5020766;28;43573;-58
2022/09/27 04:47:58;;;;;;;0.68;0.40;;;19.50;63.00;;;;;;5022245;28;44973;-58
2022/09/27 04:50:25;;;;;;;0.88;0.60;;;19.50;63.00;;;;;;5021971;28;43884;-58
2022/09/27 04:53:01;;;;;;;0.35;0.35;;;19.50;63.00;;;;;;5022112;28;43395;-58
2022/09/27 04:55:28;;;;;;;0.50;0.43;;;19.50;63.00;;;;;;5021478;28;43471;-58
2022/09/27 04:57:56;;;;;;;0.55;0.47;;;19.50;63.10;;;;;;5021997;28;44745;-59
2022/09/27 05:00:23;;;;;;;0.45;0.43;;;19.50;63.00;;;;;;5021970;28;43475;-58
2022/09/27 05:02:56;;;;;;;0.30;0.30;;;19.50;63.00;;;;;;5036400;28;43545;-58
2022/09/27 05:05:41;;;;;;;0.75;0.50;;;19.50;63.10;;;;;;5019702;28;43495;-58
2022/09/27 05:08:08;;;;;;;0.95;0.57;;;19.50;63.10;;;;;;5022730;28;44243;-58
2022/09/27 05:10:55;;;;;;;0.60;0.38;;;19.40;63.00;;;;;;5043865;28;43465;-58
2022/09/27 05:13:23;;;;;;;0.40;0.30;;;19.50;63.00;;;;;;5021628;28;43487;-58
2022/09/27 05:15:51;;;;;;;0.45;0.45;;;19.40;62.90;;;;;;5022083;28;43973;-58
2022/09/27 05:18:37;;;;;;;0.47;0.40;;;19.50;63.00;;;;;;5022882;28;44032;-58
2022/09/27 05:21:40;;;;;;;0.47;0.40;;;19.40;63.00;;;;;;5004994;28;43957;-58
2022/09/27 05:24:07;;;;;;;0.43;0.40;;;19.40;63.00;;;;;;5030624;28;43564;-58
2022/09/27 05:26:36;;;;;;;0.52;0.40;;;19.40;62.90;;;;;;5047578;28;43592;-58
2022/09/27 05:29:03;;;;;;;1.60;0.63;;;19.40;62.90;;;;;;5006137;28;44207;-58
2022/09/27 05:31:31;;;;;;;1.40;0.50;;;19.40;63.60;;;;;;5021281;28;43714;-58
2022/09/27 05:33:58;;;;;;;0.43;0.40;;;19.40;63.00;;;;;;5021319;28;43374;-58
2022/09/27 05:36:36;;;;;;;0.65;0.50;;;19.40;63.00;;;;;;5038434;28;43410;-58
2022/09/27 05:39:04;;;;;;;1.05;0.55;;;19.40;63.00;;;;;;5023346;28;43896;-58
2022/09/27 05:41:31;;;;;;;0.88;0.50;;;19.40;62.90;;;;;;5020693;28;43988;-58
2022/09/27 05:44:00;;;;;;;1.13;0.40;;;19.40;63.00;;;;;;5022153;28;43496;-58
2022/09/27 05:46:27;;;;;;;1.50;0.55;;;19.40;63.00;;;;;;5021924;28;43582;-57
2022/09/27 05:48:54;;;;;;;1.23;0.60;;;19.40;63.00;;;;;;5021367;28;45313;-58
2022/09/27 05:51:22;;;;;;;0.85;0.40;;;19.40;63.10;;;;;;5021347;28;43690;-58
2022/09/27 05:53:50;;;;;;;0.60;0.47;;;19.40;63.30;;;;;;5021522;28;43504;-58
2022/09/27 05:56:24;;;;;;;0.50;0.30;;;19.40;63.30;;;;;;5017201;28;43606;-58
2022/09/27 05:59:12;;;;;;;0.45;0.32;;;19.40;63.20;;;;;;5018079;28;44031;-58
2022/09/27 06:01:59;;;;;;;0.95;0.57;;;19.40;63.20;;;;;;5021574;28;43454;-58
2022/09/27 06:04:46;;;;;;;0.70;0.52;;;19.40;63.30;;;;;;5020385;28;43495;-58
2022/09/27 06:07:42;;;;;;;0.50;0.50;;;19.40;63.20;;;;;;5026560;28;43533;-58
2022/09/27 06:10:18;;;;;;;0.57;0.35;;;19.40;63.20;;;;;;5041128;28;45762;-58
2022/09/27 06:12:46;;;;;;;0.88;0.43;;;19.30;63.10;;;;;;5025325;28;43975;-58
2022/09/27 06:15:32;;;;;;;1.13;0.50;;;19.30;63.20;;;;;;5019070;28;43440;-58
2022/09/27 06:18:09;;;;;;;0.57;0.50;;;19.30;63.20;;;;;;5022923;28;43602;-58
2022/09/27 06:20:37;;;;;;;0.40;0.30;;;19.30;63.20;;;;;;5020730;28;44781;-58
2022/09/27 06:23:06;;;;;;;0.77;0.43;;;19.30;63.20;;;;;;5020618;28;44018;-58
2022/09/27 06:25:35;;;;;;;0.60;0.38;;;19.30;63.20;;;;;;5004263;28;43479;-58
2022/09/27 06:28:12;;;;;;;0.50;0.50;;;19.30;63.20;;;;;;5021751;28;43423;-58
2022/09/27 06:30:44;;;;;;;0.82;0.50;;;19.30;63.30;;;;;;5020665;28;45331;-58
2022/09/27 06:33:35;;;;;;;1.45;0.60;;;19.30;63.20;;;;;;5033422;28;43832;-59
2022/09/27 06:36:05;;;;;;;1.10;0.50;;;19.30;63.20;;;;;;5030120;28;43544;-58
2022/09/27 06:38:34;;;;;;;0.40;0.40;;;19.30;63.20;;;;;;5017587;28;43479;-58
2022/09/27 06:41:15;;;;;;;0.73;0.45;;;19.30;63.20;;;;;;5050577;28;44632;-58
2022/09/27 06:44:00;;;;;;;0.50;0.30;;;19.30;63.20;;;;;;5017431;28;43438;-59
2022/09/27 06:46:45;;;;;;;0.50;0.50;;;19.30;63.10;;;;;;5017712;28;43986;-58
2022/09/27 06:49:24;;;;;;;0.52;0.40;;;19.30;63.20;;;;;;5022151;28;43432;-58
2022/09/27 06:51:53;;;;;;;0.50;0.45;;;19.30;63.20;;;;;;5020179;28;44679;-58
2022/09/27 06:54:21;;;;;;;0.80;0.50;;;19.30;63.30;;;;;;5020947;28;43998;-58
2022/09/27 06:56:49;;;;;;;1.38;0.52;;;19.20;63.20;;;;;;5053931;28;43438;-59
2022/09/27 07:02:20;;;;;;;1.42;0.40;;;19.20;63.30;;;;;;5020640;28;44812;-58
2022/09/27 07:05:09;;;;;;;0.80;0.50;;;19.20;63.30;;;;;;5014480;28;44110;-59
2022/09/27 07:07:57;;;;;;;0.90;0.50;;;19.20;63.40;;;;;;5021432;28;43621;-59
2022/09/27 07:10:26;;;;;;;1.03;0.47;;;19.20;63.40;;;;;;5036867;28;43600;-58
2022/09/27 07:12:54;;;;;;;1.02;0.60;;;19.20;63.40;;;;;;5019553;28;43615;-58
2022/09/27 07:15:24;;;;;;;0.40;0.40;;;19.20;63.50;;;;;;5019845;28;43506;-59
2022/09/27 07:17:57;;;;;;;0.95;0.50;;;19.20;63.50;;;;;;5004412;28;43474;-58
2022/09/27 07:20:30;;;;;;;0.22;0.20;;;19.20;63.40;;;;;;5018842;28;43507;-58
2022/09/27 07:22:58;;;;;;;0.52;0.30;;;19.20;63.50;;;;;;5020796;28;44932;-57
2022/09/27 07:25:25;;;;;;;0.95;0.60;;;19.20;63.40;;;;;;5019952;28;43505;-58
2022/09/27 07:27:53;;;;;;;0.45;0.40;;;19.20;63.50;;;;;;5037316;28;43467;-58
2022/09/27 07:30:22;;;;;;;2.72;0.93;;;19.20;63.50;;;;;;5020517;28;43507;-58
2022/09/27 07:32:49;;;;;;;2.90;2.60;;;19.20;63.60;;;;;;4999658;28;45276;-57
2022/09/27 07:35:17;;;;;;;2.67;2.47;;;19.20;63.60;;;;;;5019716;28;43940;-58
2022/09/27 07:37:44;;;;;;;3.20;1.77;;;19.20;63.60;;;;;;5020440;28;43479;-58
2022/09/27 07:40:13;;;;;;;1.85;1.75;;;19.20;63.60;;;;;;5003695;28;43546;-58
2022/09/27 07:42:40;;;;;;;1.60;1.50;;;19.20;63.40;;;;;;5019503;28;44715;-58
2022/09/27 07:45:09;;;;;;;1.83;1.73;;;19.20;63.50;;;;;;5020316;28;43987;-59
2022/09/27 07:47:55;;;;;;;3.03;2.53;;;19.20;63.60;;;;;;5001990;28;43528;-59
2022/09/27 07:50:47;;;;;;;4.05;2.50;;;19.20;63.70;;;;;;5020368;28;43565;-58
2022/09/27 07:53:33;;;;;;;4.45;2.28;;;19.20;63.70;;;;;;5020727;28;44726;-59
2022/09/27 07:56:29;;;;;;;2.13;1.92;;;19.30;63.60;;;;;;5000608;28;43529;-60
2022/09/27 07:58:57;;;;;;;2.47;2.15;;;19.30;63.60;;;;;;5020494;28;43470;-58
2022/09/27 08:01:25;;;;;;;3.22;2.08;;;19.40;63.50;;;;;;5020464;28;43522;-59
2022/09/27 08:03:53;;;;;;;2.10;2.00;;;19.50;63.40;;;;;;5019365;28;44708;-59
2022/09/27 08:06:21;;;;;;;4.07;1.90;;;19.50;63.30;;;;;;5019779;28;44008;-59
2022/09/27 08:08:48;;;;;;;1.95;1.73;;;19.60;63.20;;;;;;5019656;28;43461;-59
2022/09/27 08:11:17;;;;;;;1.80;1.70;;;19.70;63.10;;;;;;5021179;28;43605;-59
2022/09/27 08:13:51;;;;;;;;;;;19.70;63.00;;;;;;5020266;28;44999;-59
2022/09/27 08:16:22;;;;;;;1.70;1.60;;;19.80;62.90;;;;;;5019067;28;43726;-58
2022/09/27 08:19:18;;;;;;;2.13;1.50;;;19.80;62.90;;;;;;4999688;28;43509;-59
2022/09/27 08:21:46;;;;;;;1.42;1.25;;;19.80;62.70;;;;;;5023586;28;43479;-59
2022/09/27 08:24:22;;;;;;;1.63;1.50;;;19.80;62.60;;;;;;5022782;28;44898;-59
2022/09/27 08:27:01;;;;;;;1.33;1.23;;;19.90;62.60;;;;;;5019334;28;44008;-59
2022/09/27 08:30:02;;;;;;;1.92;1.40;;;20.00;62.70;;;;;;5016003;28;43481;-59
2022/09/27 08:32:29;;;;;;;1.83;1.38;;;20.00;62.60;;;;;;5022217;28;43566;-59
2022/09/27 08:35:00;;;;;;;1.45;1.35;;;20.10;62.50;;;;;;5052790;28;44965;-58
2022/09/27 08:37:28;;;;;;;1.08;1.08;;;20.20;62.40;;;;;;5004349;28;43385;-59
2022/09/27 08:39:56;;;;;;;1.52;1.20;;;20.30;62.40;;;;;;5022901;28;43463;-59
2022/09/27 08:42:40;;;;;;;1.10;1.00;;;20.40;62.30;;;;;;5021173;28;43484;-59
2022/09/27 08:45:10;;;;;;;1.20;1.20;;;20.50;62.10;;;;;;5021916;28;45104;-59
2022/09/27 08:47:51;;;;;;;;;;;20.50;62.00;;;;;;5022671;28;43677;-58
2022/09/27 08:50:26;;;;;;;1.90;1.38;;;20.60;61.90;;;;;;5019781;28;43430;-59
2022/09/27 08:53:12;;;;;;;2.42;1.38;;;20.70;62.00;;;;;;5018506;28;43488;-59
2022/09/27 08:55:56;;;;;;;1.45;1.00;;;20.70;62.00;;;;;;5038632;28;44931;-59
2022/09/27 08:58:29;;;;;;;2.90;1.05;;;20.80;62.00;;;;;;5053960;28;43694;-61
2022/09/27 09:01:07;;;;;;;2.80;1.30;;;20.90;62.50;;;;;;5054153;28;43483;-60
2022/09/27 09:03:54;;;;;;;2.13;1.10;;;21.00;62.20;;;;;;5036300;28;43578;-60
2022/09/27 09:06:25;;;;;;;5.57;1.20;;;21.10;62.00;;;;;;5020704;28;45138;-57
2022/09/27 09:09:19;;;;;;;3.00;1.10;;;21.20;62.40;;;;;;5055272;28;43373;-60
2022/09/27 09:15:28;;;;;;;0.85;0.80;;;21.40;62.10;;;;;;5054931;28;43486;-60
2022/09/27 09:18:00;;;;;;;1.67;0.88;;;21.50;61.70;;;;;;5053081;28;44951;-60
2022/09/27 09:21:01;;;;;;;1.77;0.90;;;21.60;61.60;;;;;;5054770;28;43533;-59
2022/09/27 09:23:50;;;;;;;1.75;1.02;;;21.70;61.60;;;;;;5020854;28;43494;-59
2022/09/27 09:26:20;;;;;;;1.95;0.85;;;21.70;61.10;;;;;;5053132;28;44059;-58
2022/09/27 09:29:23;;;;;;;0.80;0.70;;;21.80;61.10;;;;;;5021319;28;46188;-58
2022/09/27 09:32:19;;;;;;;2.35;0.80;;;21.80;60.70;;;;;;5018122;28;43906;-58
2022/09/27 09:34:56;;;;;;;1.70;0.85;;;21.90;60.80;;;;;;5004482;28;43507;-59
2022/09/27 09:37:30;;;;;;;0.65;0.65;;;22.00;60.70;;;;;;5017143;28;43450;-58
2022/09/27 09:40:18;;;;;;;1.75;0.80;;;22.00;60.50;;;;;;5019818;28;44824;-58
2022/09/27 09:43:15;;;;;;;2.20;0.90;;;22.00;60.40;;;;;;5019777;28;43775;-59
2022/09/27 09:45:52;;;;;;;1.13;0.70;;;22.10;60.30;;;;;;5014090;28;43442;-58
2022/09/27 09:48:22;;;;;;;2.05;0.50;;;22.10;60.30;;;;;;5021796;28;43485;-58
2022/09/27 09:50:58;;;;;;;0.90;0.70;;;22.20;60.90;;;;;;5021656;28;44683;-57
2022/09/27 09:53:31;;;;;;;1.77;0.90;;;22.20;60.10;;;;;;5019172;28;43530;-58
2022/09/27 09:56:04;;;;;;;0.85;0.60;;;22.20;60.00;;;;;;5054429;28;43503;-58
2022/09/27 09:58:41;;;;;;;1.33;0.80;;;22.30;60.00;;;;;;5018818;28;43517;-58
2022/09/27 10:01:31;;;;;;;;;;;22.30;59.90;;;;;;5021676;28;43789;-58
2022/09/27 10:03:58;;;;;;;0.93;0.68;;;22.30;59.90;;;;;;5022860;28;43777;-58
2022/09/27 10:06:29;;;;;;;1.00;0.57;;;22.20;59.90;;;;;;5020905;28;43507;-59
2022/09/27 10:08:58;;;;;;;;;;;22.30;59.90;;;;;;5021661;28;43408;-58
2022/09/27 10:11:44;;;;;;;1.80;0.80;;;22.30;59.90;;;;;;5021949;28;44753;-58
2022/09/27 10:14:19;;;;;;;1.10;0.60;;;22.20;60.00;;;;;;5020481;28;43486;-58
2022/09/27 10:16:58;;;;;;;1.45;0.82;;;22.30;60.10;;;;;;5020941;28;43394;-58
2022/09/27 10:19:31;;;;;;;3.15;0.60;;;22.20;60.30;;;;;;5016002;28;43457;-59
2022/09/27 10:22:11;;;;;;;0.60;0.60;;;22.30;60.20;;;;;;5020064;28;43816;-59
2022/09/27 10:25:00;;;;;;;1.13;0.50;;;22.20;60.30;;;;;;5019628;28;44065;-59
2022/09/27 10:27:49;;;;;;;0.85;0.60;;;22.30;60.20;;;;;;5021793;28;43476;-59
2022/09/27 10:30:33;;;;;;;1.40;0.75;;;22.20;60.30;;;;;;5017037;28;44093;-59
2022/09/27 10:33:17;;;;;;;2.38;0.90;;;22.20;60.30;;;;;;5020487;28;44922;-59
2022/09/27 10:35:50;;;;;;;1.33;0.80;;;22.20;60.40;;;;;;5034402;28;43596;-58
2022/09/27 10:38:29;;;;;;;0.60;0.60;;;22.20;60.30;;;;;;5021179;28;43421;-58
2022/09/27 10:41:36;;;;;;;0.60;0.50;;;22.10;60.20;;;;;;5019791;28;43539;-58
2022/09/27 10:44:25;;;;;;;1.23;0.57;;;22.10;60.20;;;;;;5014525;28;44203;-58
2022/09/27 10:47:07;;;;;;;0.70;0.65;;;22.10;60.30;;;;;;5054414;28;43688;-59
2022/09/27 10:49:46;;;;;;;0.50;0.50;;;22.10;60.30;;;;;;5021064;28;43543;-58
2022/09/27 10:52:32;;;;;;;0.70;0.60;;;22.10;60.40;;;;;;5006114;28;43524;-59
2022/09/27 10:55:24;;;;;;;1.73;0.63;;;22.00;60.30;;;;;;5019521;28;44035;-59
2022/09/27 10:57:55;;;;;;;1.35;0.43;;;22.00;60.30;;;;;;5016939;28;43467;-58
2022/09/27 11:00:33;;;;;;;1.70;0.50;;;22.00;60.40;;;;;;5020104;28;43455;-58
2022/09/27 11:03:06;;;;;;;1.00;0.50;;;22.00;60.60;;;;;;5019389;28;43471;-59
2022/09/27 11:05:38;;;;;;;1.25;0.63;;;22.00;60.50;;;;;;5018775;28;46072;-58
2022/09/27 11:08:18;;;;;;;0.95;0.57;;;22.00;60.60;;;;;;5020228;28;43547;-59
2022/09/27 11:11:01;;;;;;;0.40;0.40;;;21.90;60.60;;;;;;5010910;28;43971;-59
2022/09/27 11:13:31;;;;;;;0.65;0.45;;;21.90;60.60;;;;;;5019469;28;43431;-59
2022/09/27 11:16:09;;;;;;;0.73;0.40;;;21.90;60.80;;;;;;5046487;28;44957;-58
2022/09/27 11:19:18;;;;;;;1.70;0.47;;;21.80;60.90;;;;;;5021902;28;43442;-58
2022/09/27 11:21:49;;;;;;;0.68;0.60;;;21.80;61.00;;;;;;5022058;28;43563;-59
2022/09/27 11:24:47;;;;;;;1.02;0.57;;;21.80;61.00;;;;;;5018363;28;43526;-58
2022/09/27 11:27:19;;;;;;;0.68;0.50;;;21.70;61.00;;;;;;5051032;28;44693;-59
2022/09/27 11:30:04;;;;;;;0.63;0.60;;;21.70;61.20;;;;;;5019493;28;43418;-58
2022/09/27 11:33:17;;;;;;;0.85;0.40;;;21.70;61.10;;;;;;5018818;28;43352;-58
2022/09/27 11:36:09;;;;;;;0.40;0.40;;;21.60;61.20;;;;;;5002798;28;43484;-59
2022/09/27 11:38:36;;;;;;;;;;;21.60;61.30;;;;;;5048889;28;44147;-58
2022/09/27 11:41:41;;;;;;;1.70;0.50;;;21.60;61.30;;;;;;5019404;28;43938;-58
2022/09/27 11:44:48;;;;;;;0.30;0.30;;;21.60;61.40;;;;;;5035886;28;43467;-58
2022/09/27 11:47:40;;;;;;;0.40;0.40;;;21.50;61.40;;;;;;5017409;28;43714;-58
2022/09/27 11:50:25;;;;;;;0.82;0.43;;;21.50;61.40;;;;;;5015594;28;43949;-59
2022/09/27 11:53:21;;;;;;;0.73;0.47;;;21.50;61.50;;;;;;5018952;28;43462;-58
2022/09/27 11:56:24;;;;;;;0.63;0.40;;;21.50;61.70;;;;;;5019962;28;43564;-58
2022/09/27 11:59:03;;;;;;;0.88;0.50;;;21.40;62.20;;;;;;5019462;28;43533;-58
2022/09/27 12:01:50;;;;;;;0.52;0.30;;;21.40;61.60;;;;;;5021078;28;44686;-58
2022/09/27 12:04:23;;;;;;;0.60;0.35;;;21.40;61.70;;;;;;5023883;28;43587;-58
2022/09/27 12:06:57;;;;;;;0.40;0.40;;;21.30;61.70;;;;;;5020135;28;43426;-58
2022/09/27 12:09:42;;;;;;;1.05;0.60;;;21.30;61.70;;;;;;5050989;28;43447;-58
2022/09/27 12:12:21;;;;;;;0.60;0.57;;;21.20;61.70;;;;;;5024916;28;43903;-58
2022/09/27 12:14:55;;;;;;;0.50;0.43;;;21.20;61.70;;;;;;5022918;28;43954;-58
2022/09/27 12:17:30;;;;;;;0.63;0.50;;;21.20;61.80;;;;;;5024191;28;43398;-59
2022/09/27 12:20:02;;;;;;;1.25;0.40;;;21.20;61.90;;;;;;5023005;28;43419;-58
2022/09/27 12:22:55;;;;;;;1.17;0.45;;;21.20;62.00;;;;;;5022811;28;44979;-58
2022/09/27 12:25:53;;;;;;;0.38;0.28;;;21.20;62.10;;;;;;5022706;28;43693;-58
2022/09/27 12:28:51;;;;;;;1.83;0.60;;;21.20;62.10;;;;;;5021974;28;43470;-58
2022/09/27 12:31:25;;;;;;;1.60;0.60;;;21.20;62.00;;;;;;5022195;28;43980;-58
2022/09/27 12:34:02;;;;;;;0.65;0.47;;;21.20;62.00;;;;;;5024458;28;43825;-58
2022/09/27 12:36:42;;;;;;;0.50;0.50;;;21.20;62.00;;;;;;5021217;28;43969;-58
2022/09/27 12:39:26;;;;;;;1.35;0.35;;;21.20;62.00;;;;;;5056326;28;43548;-58
2022/09/27 12:42:13;;;;;;;0.20;0.20;;;21.20;62.00;;;;;;5022709;28;43620;-58
2022/09/27 12:44:44;;;;;;;0.40;0.40;;;21.20;62.00;;;;;;5021651;28;43897;-58
2022/09/27 12:47:48;;;;;;;0.30;0.30;;;21.20;62.00;;;;;;5015371;28;43432;-58
2022/09/27 12:50:41;;;;;;;0.90;0.40;;;21.20;62.00;;;;;;5021236;28;43458;-58
2022/09/27 12:53:22;;;;;;;0.70;0.30;;;21.20;62.00;;;;;;5039498;28;43478;-59
2022/09/27 12:56:14;;;;;;;1.45;0.60;;;21.20;62.00;;;;;;5022138;28;43848;-61
2022/09/27 12:58:53;;;;;;;0.47;0.30;;;21.20;62.30;;;;;;5022511;28;43755;-60
2022/09/27 13:01:35;;;;;;;0.57;0.55;;;21.20;62.30;;;;;;5056021;28;43381;-60
2022/09/27 13:04:24;;;;;;;0.98;0.60;;;21.20;62.30;;;;;;5003052;28;43508;-59
2022/09/27 13:07:16;;;;;;;1.63;0.50;;;21.20;62.30;;;;;;5021277;28;45018;-58
2022/09/27 13:10:06;;;;;;;1.17;0.50;;;21.20;62.30;;;;;;5021472;28;43495;-59
2022/09/27 13:12:38;;;;;;;0.70;0.40;;;21.20;62.30;;;;;;5038825;28;43400;-59
2022/09/27 13:15:24;;;;;;;0.43;0.43;;;21.10;62.20;;;;;;5021869;28;43475;-59
2022/09/27 13:17:57;;;;;;;0.43;0.43;;;21.10;62.20;;;;;;5020991;28;44948;-59
2022/09/27 13:20:35;;;;;;;0.70;0.35;;;21.10;62.30;;;;;;5020902;28;43976;-58
2022/09/27 13:23:18;;;;;;;1.25;0.40;;;21.00;62.30;;;;;;5022160;28;43575;-59
2022/09/27 13:26:02;;;;;;;0.35;0.35;;;21.10;62.40;;;;;;5020485;28;43521;-58
2022/09/27 13:28:58;;;;;;;0.35;0.30;;;21.00;62.40;;;;;;5020886;28;44747;-59
2022/09/27 13:31:53;;;;;;;0.50;0.30;;;21.00;62.30;;;;;;5017892;28;43876;-58
2022/09/27 13:34:45;;;;;;;0.45;0.35;;;21.00;62.40;;;;;;5035456;28;43462;-59
2022/09/27 13:37:44;;;;;;;1.25;0.45;;;21.00;62.50;;;;;;5021791;28;44185;-59
2022/09/27 13:40:32;;;;;;;0.50;0.30;;;20.90;62.50;;;;;;5020080;28;43792;-58
2022/09/27 13:44:06;;;;;;;0.40;0.40;;;20.90;62.50;;;;;;5018272;28;44560;-58
2022/09/27 13:47:14;;;;;;;0.50;0.40;;;20.90;62.50;;;;;;5036812;28;43590;-59
2022/09/27 13:49:47;;;;;;;0.45;0.20;;;20.90;62.50;;;;;;5019695;28;43555;-59
2022/09/27 13:52:43;;;;;;;0.70;0.50;;;20.90;62.50;;;;;;5020096;28;44174;-58
2022/09/27 13:55:34;;;;;;;0.40;0.40;;;20.90;62.70;;;;;;5021089;28;43488;-58
2022/09/27 13:58:11;;;;;;;0.73;0.50;;;20.90;62.60;;;;;;5022815;28;43394;-58
2022/09/27 14:00:43;;;;;;;0.70;0.30;;;20.90;62.70;;;;;;5019807;28;43543;-58
2022/09/27 14:03:11;;;;;;;1.02;0.55;;;20.80;62.60;;;;;;5020752;28;45014;-58